Terminal Aerodrome Forecast
Issued by NWS Paducah, KY

Home | Current Version | Previous Version | Text Only | Print | Product List | Glossary On
Versions: 1 2 3 4 5 6 7 8 9 10 11 12 13 14 15 16 17 18
000
FTUS43 KPAH 251736
TAFPAH
TAF
KPAH 251736Z 2518/2618 23006KT P6SM SKC
     FM252000 18005KT P6SM SCT050
     FM260000 13006KT P6SM VCTS SCT030CB OVC050
     FM260400 20005KT 4SM TSRA BKN015CB OVC050
     FM261000 35012G19KT 3SM -SHRA BR BKN015
     FM261700 36015KT 5SM -RA BKN025=

USA.gov is the U.S. government's official web portal to all federal, state and local government web resources and services.